Time;durP1;ratioP1;P1;durP2;ratioP2;P2;SDS_P1;SDS_P2;PMS_P1;PMS_P2;Temp;Humidity;BMP_temperature;BMP_pressure;BME280_temperature;BME280_humidity;BME280_pressure;Samples;Min_cycle;Max_cycle;Signal;HPM_P1;HPM_P2
2022/04/08 00:00:39;;;;;;;5.33;1.67;;;;;;;11.22;35.94;96093.94;8350741;28;20227;-68
2022/04/08 00:04:44;;;;;;;8.50;1.80;;;;;;;11.25;35.84;96116.19;8351128;28;20239;-67
2022/04/08 00:08:48;;;;;;;7.50;2.07;;;;;;;11.00;35.44;96115.47;8351042;28;20232;-68
2022/04/08 00:12:51;;;;;;;6.63;2.00;;;;;;;11.15;35.84;96101.34;8351183;28;20242;-66
2022/04/08 00:16:54;;;;;;;7.57;1.70;;;;;;;11.03;36.15;96117.81;8350936;28;20235;-67
2022/04/08 00:20:57;;;;;;;6.27;1.63;;;;;;;11.12;35.82;96117.13;8350861;28;20299;-67
2022/04/08 00:25:02;;;;;;;7.50;2.00;;;;;;;11.19;35.74;96127.03;8350712;28;20557;-67
2022/04/08 00:29:05;;;;;;;5.77;1.73;;;;;;;11.17;35.69;96119.38;8350699;28;20259;-66
2022/04/08 00:33:08;;;;;;;7.30;1.97;;;;;;;11.23;35.37;96129.28;8350253;28;20232;-66
2022/04/08 00:37:11;;;;;;;5.27;1.80;;;;;;;11.07;35.22;96123.59;8349742;28;20226;-67
2022/04/08 00:41:15;;;;;;;6.50;1.93;;;;;;;10.93;35.21;96129.84;8350235;28;20402;-66
2022/04/08 00:45:18;;;;;;;6.63;1.80;;;;;;;11.00;35.61;96137.94;8349908;28;20240;-66
2022/04/08 00:49:22;;;;;;;6.90;1.83;;;;;;;11.03;35.52;96151.50;8349504;28;20239;-66
2022/04/08 00:53:28;;;;;;;4.67;1.80;;;;;;;11.19;35.07;96148.56;8349382;28;20235;-67
2022/04/08 00:57:33;;;;;;;7.57;2.07;;;;;;;11.20;34.84;96152.00;8348882;28;20224;-70
2022/04/08 01:01:36;;;;;;;6.17;1.93;;;;;;;10.93;35.24;96153.13;8349396;28;20239;-69
2022/04/08 01:05:39;;;;;;;5.77;1.70;;;;;;;10.90;35.64;96153.34;8348639;28;20235;-70
2022/04/08 01:09:43;;;;;;;6.07;1.67;;;;;;;10.73;35.57;96162.38;8348530;28;20236;-70
2022/04/08 01:13:47;;;;;;;7.17;1.73;;;;;;;11.00;35.30;96172.44;8349299;28;20232;-70
2022/04/08 01:17:50;;;;;;;6.97;2.00;;;;;;;10.74;35.79;96180.38;8349015;28;20228;-69
2022/04/08 01:21:53;;;;;;;7.87;2.17;;;;;;;10.82;36.01;96199.72;8348813;28;20535;-72
2022/04/08 01:25:58;;;;;;;7.87;1.90;;;;;;;10.90;35.71;96187.03;8348842;28;20235;-70
2022/04/08 01:30:01;;;;;;;8.23;1.90;;;;;;;10.93;35.71;96204.94;8348728;28;20246;-69
2022/04/08 01:34:04;;;;;;;6.27;1.90;;;;;;;11.02;35.75;96216.38;8348492;28;20240;-69
2022/04/08 01:38:07;;;;;;;5.20;1.90;;;;;;;10.86;36.11;96221.84;8346448;28;20228;-70
2022/04/08 01:42:12;;;;;;;6.80;1.90;;;;;;;10.73;36.29;96216.75;8320453;28;20236;-69
2022/04/08 01:46:17;;;;;;;6.93;2.00;;;;;;;10.73;36.44;96217.56;8317657;28;20404;-70
2022/04/08 01:50:22;;;;;;;7.40;1.97;;;;;;;10.67;36.69;96218.00;8334192;28;20267;-70
2022/04/08 01:54:25;;;;;;;8.73;2.00;;;;;;;10.65;36.76;96227.66;8348516;28;20295;-70
2022/04/08 01:58:29;;;;;;;6.83;1.67;;;;;;;10.85;36.80;96227.97;8317139;28;20201;-70
2022/04/08 02:02:32;;;;;;;6.90;1.80;;;;;;;10.93;36.65;96236.00;8317002;28;20240;-69
2022/04/08 02:06:36;;;;;;;8.80;1.97;;;;;;;10.91;37.04;96235.31;8316708;28;20291;-69
2022/04/08 02:10:39;;;;;;;5.90;1.67;;;;;;;10.92;36.69;96240.34;8314146;28;20233;-71
2022/04/08 02:14:44;;;;;;;7.17;1.50;;;;;;;10.84;36.52;96242.69;8315045;28;20233;-70
2022/04/08 02:18:48;;;;;;;5.60;1.90;;;;;;;10.72;37.15;96249.56;8314837;28;20233;-70
2022/04/08 02:22:51;;;;;;;10.37;2.00;;;;;;;10.72;37.08;96254.75;8314626;28;20255;-69
2022/04/08 02:26:54;;;;;;;6.07;1.87;;;;;;;10.74;37.22;96252.88;8314243;28;20239;-70
2022/04/08 02:30:59;;;;;;;7.40;1.80;;;;;;;10.71;37.61;96263.44;8314718;28;20232;-70
2022/04/08 02:35:02;;;;;;;6.03;1.83;;;;;;;10.84;37.35;96268.56;8314254;28;20573;-70
2022/04/08 02:39:05;;;;;;;6.10;1.80;;;;;;;10.73;37.66;96277.09;8314355;28;20238;-69
2022/04/08 02:43:08;;;;;;;6.00;1.80;;;;;;;10.48;38.26;96267.69;8313988;28;20275;-69
2022/04/08 02:47:13;;;;;;;4.67;1.53;;;;;;;10.74;38.00;96285.72;8313964;28;20232;-70
2022/04/08 02:51:16;;;;;;;5.50;1.53;;;;;;;10.76;38.14;96287.25;8338555;28;20235;-70
2022/04/08 02:55:19;;;;;;;6.67;2.00;;;;;;;10.49;38.31;96286.63;8346712;28;20240;-70
2022/04/08 02:59:22;;;;;;;7.37;2.00;;;;;;;10.52;38.52;96297.59;8346835;28;20403;-70
2022/04/08 03:03:27;;;;;;;7.30;2.07;;;;;;;10.55;38.39;96302.56;8346587;28;20250;-70
2022/04/08 03:07:30;;;;;;;6.47;2.03;;;;;;;10.45;38.91;96298.97;8346674;28;20232;-70
2022/04/08 03:11:33;;;;;;;6.03;2.00;;;;;;;10.61;38.83;96311.66;8346559;28;20413;-70
2022/04/08 03:15:37;;;;;;;8.60;2.07;;;;;;;10.55;39.08;96309.50;8346612;28;20254;-69
2022/04/08 03:19:41;;;;;;;8.17;2.10;;;;;;;10.52;39.06;96310.53;8346581;28;20535;-69
2022/04/08 03:23:44;;;;;;;6.10;1.73;;;;;;;10.41;39.30;96299.28;8352611;28;20232;-70
2022/04/08 03:27:47;;;;;;;10.20;2.30;;;;;;;10.46;38.98;96304.97;8352569;28;20236;-70
2022/04/08 03:31:50;;;;;;;9.90;2.00;;;;;;;10.31;39.62;96309.44;8352611;28;20235;-70
2022/04/08 03:35:55;;;;;;;8.90;2.23;;;;;;;10.08;39.89;96311.84;8352657;28;20293;-70
2022/04/08 03:39:58;;;;;;;5.37;1.77;;;;;;;10.32;39.72;96318.88;8352301;28;20236;-70
2022/04/08 03:44:01;;;;;;;5.37;2.00;;;;;;;10.05;40.41;96325.00;8352132;28;20350;-70
2022/04/08 03:48:04;;;;;;;8.07;1.93;;;;;;;10.14;40.04;96319.16;8352029;28;20231;-70
2022/04/08 03:52:09;;;;;;;5.67;1.80;;;;;;;10.12;40.00;96328.78;8351550;28;20244;-70
2022/04/08 03:56:13;;;;;;;8.23;2.37;;;;;;;10.19;39.90;96324.03;8351426;28;20228;-69
2022/04/08 04:00:16;;;;;;;6.87;1.90;;;;;;;10.40;39.61;96321.75;8351197;28;20239;-70
2022/04/08 04:04:19;;;;;;;9.47;2.33;;;;;;;10.08;40.25;96323.94;8350960;28;20236;-70
2022/04/08 04:08:24;;;;;;;6.90;2.07;;;;;;;10.23;40.22;96332.41;8350843;28;20551;-70
2022/04/08 04:12:27;;;;;;;7.03;2.00;;;;;;;10.00;40.54;96339.97;8350812;28;20425;-70
2022/04/08 04:16:30;;;;;;;9.13;2.00;;;;;;;10.01;40.56;96345.97;8350688;28;20238;-70
2022/04/08 04:20:34;;;;;;;8.23;2.20;;;;;;;9.98;40.79;96344.44;8350637;28;20215;-70
2022/04/08 04:24:38;;;;;;;7.97;2.07;;;;;;;9.96;41.03;96367.00;8350588;28;20232;-69
2022/04/08 04:28:41;;;;;;;7.80;2.00;;;;;;;9.97;41.06;96363.47;8350512;28;20430;-70
2022/04/08 04:32:44;;;;;;;7.67;1.90;;;;;;;9.92;41.20;96368.13;8349481;28;20231;-70
2022/04/08 04:36:47;;;;;;;7.10;2.33;;;;;;;9.92;41.29;96363.78;8350351;28;20242;-69
2022/04/08 04:40:51;;;;;;;7.70;2.40;;;;;;;10.14;40.92;96375.25;8350242;28;20239;-70
2022/04/08 04:44:54;;;;;;;9.63;2.07;;;;;;;10.28;40.63;96374.31;8349836;28;20232;-70
2022/04/08 04:48:57;;;;;;;7.00;2.10;;;;;;;10.31;40.88;96379.31;8349543;28;20251;-69
2022/04/08 04:53:00;;;;;;;8.37;2.43;;;;;;;10.25;41.03;96396.03;8348804;28;20239;-69
2022/04/08 04:57:05;;;;;;;7.57;2.43;;;;;;;10.24;41.21;96401.31;8349230;28;20248;-70
2022/04/08 05:01:08;;;;;;;11.50;2.60;;;;;;;10.23;41.10;96404.84;8349389;28;20296;-69
2022/04/08 05:05:15;;;;;;;9.53;2.30;;;;;;;10.24;41.34;96414.25;8348632;28;20289;-70
2022/04/08 05:09:18;;;;;;;6.67;1.87;;;;;;;10.29;41.27;96419.97;8349285;28;20240;-70
2022/04/08 05:13:23;;;;;;;7.67;2.20;;;;;;;10.31;41.62;96429.28;8349105;28;20232;-69
2022/04/08 05:17:32;;;;;;;9.83;2.63;;;;;;;10.34;41.50;96431.69;8349117;28;20239;-70
2022/04/08 05:21:35;;;;;;;9.63;2.47;;;;;;;10.39;41.54;96441.72;8348852;28;20232;-70
2022/04/08 05:25:38;;;;;;;8.57;2.40;;;;;;;10.42;41.60;96444.09;8347927;28;20231;-69
2022/04/08 05:29:42;;;;;;;12.47;2.50;;;;;;;10.60;41.48;96461.88;8347655;28;20251;-70
2022/04/08 05:33:45;;;;;;;13.00;2.63;;;;;;;10.51;41.85;96455.59;8347808;28;20441;-70
2022/04/08 05:37:49;;;;;;;7.33;2.23;;;;;;;10.62;41.54;96470.38;8347804;28;20235;-70
2022/04/08 05:41:52;;;;;;;8.47;2.37;;;;;;;10.62;41.97;96470.38;8347542;28;20235;-70
2022/04/08 05:45:57;;;;;;;7.37;2.33;;;;;;;10.68;41.60;96475.13;8346557;28;20231;-71
2022/04/08 05:50:00;;;;;;;9.93;2.70;;;;;;;10.89;41.53;96475.41;8347936;28;20232;-70
2022/04/08 05:54:03;;;;;;;8.77;2.60;;;;;;;10.92;41.58;96485.56;8347664;28;20244;-70
2022/04/08 05:58:06;;;;;;;7.67;2.60;;;;;;;10.92;41.59;96496.75;8348010;28;20235;-69
2022/04/08 06:02:10;;;;;;;12.70;3.07;;;;;;;10.86;41.54;96509.31;8339209;28;20228;-70
2022/04/08 06:06:13;;;;;;;9.63;2.87;;;;;;;10.88;42.11;96504.84;8347277;28;20255;-69
2022/04/08 06:10:18;;;;;;;7.97;2.33;;;;;;;10.95;41.96;96506.91;8347260;28;20235;-69
2022/04/08 06:14:22;;;;;;;10.80;2.57;;;;;;;11.25;41.49;96510.06;8347354;28;20236;-70
2022/04/08 06:18:26;;;;;;;9.57;2.73;;;;;;;11.11;41.77;96519.63;8347153;28;20574;-69
2022/04/08 06:22:29;;;;;;;10.90;2.70;;;;;;;11.20;41.77;96505.22;8347322;28;20240;-70
2022/04/08 06:26:34;;;;;;;8.50;2.63;;;;;;;11.24;41.54;96503.22;8347284;28;20428;-70
2022/04/08 06:30:39;;;;;;;8.37;2.40;;;;;;;11.60;41.05;96504.97;8347182;28;20228;-69
2022/04/08 06:34:43;;;;;;;8.57;2.30;;;;;;;11.77;40.98;96508.13;8347088;28;20239;-70
2022/04/08 06:38:51;;;;;;;8.17;2.50;;;;;;;11.54;41.41;96501.06;8346973;28;20425;-70
2022/04/08 06:42:55;;;;;;;10.47;2.70;;;;;;;11.95;41.11;96493.00;8346304;28;20259;-70
2022/04/08 06:46:58;;;;;;;9.17;2.50;;;;;;;12.52;39.59;96468.84;8346890;28;20235;-69
2022/04/08 06:51:04;;;;;;;10.70;2.60;;;;;;;12.96;39.06;96479.34;8346870;28;20232;-69
2022/04/08 06:55:09;;;;;;;8.83;2.83;;;;;;;13.00;39.00;96485.97;8347742;28;20243;-70
2022/04/08 06:59:12;;;;;;;10.23;3.03;;;;;;;13.42;38.15;96488.78;8352975;28;20235;-70
2022/04/08 07:03:15;;;;;;;8.47;2.80;;;;;;;13.01;38.56;96492.84;8353033;28;20308;-69
2022/04/08 07:07:19;;;;;;;11.33;3.13;;;;;;;12.56;39.64;96498.81;8352892;28;20423;-70
2022/04/08 07:11:22;;;;;;;9.50;2.80;;;;;;;12.21;40.15;96483.31;8353039;28;20232;-70
2022/04/08 07:15:25;;;;;;;10.37;3.07;;;;;;;11.94;40.36;96476.63;8352665;28;20239;-70
2022/04/08 07:19:28;;;;;;;8.67;2.57;;;;;;;12.15;40.33;96484.59;8352444;28;20429;-69
2022/04/08 07:23:32;;;;;;;6.83;2.33;;;;;;;12.42;39.83;96473.91;8352470;28;20248;-71
2022/04/08 07:27:43;;;;;;;8.27;2.70;;;;;;;12.25;39.82;96477.75;8352226;28;20236;-70
2022/04/08 07:31:46;;;;;;;7.87;2.30;;;;;;;13.10;38.95;96466.13;8352335;28;20311;-70
2022/04/08 07:35:50;;;;;;;8.67;2.60;;;;;;;13.47;38.08;96463.25;8352193;28;20243;-69
2022/04/08 07:39:54;;;;;;;11.33;2.30;;;;;;;13.59;37.86;96466.63;8352052;28;20232;-72
2022/04/08 07:43:57;;;;;;;10.30;2.80;;;;;;;13.46;37.86;96461.56;8351998;28;20227;-70
2022/04/08 07:48:00;;;;;;;10.57;2.73;;;;;;;13.51;38.43;96458.63;8351836;28;20236;-70
2022/04/08 07:52:04;;;;;;;8.93;2.57;;;;;;;12.88;38.95;96444.41;8351674;28;20292;-70
2022/04/08 07:56:08;;;;;;;8.53;2.43;;;;;;;12.86;39.04;96450.66;8351887;28;20235;-69
2022/04/08 08:00:12;;;;;;;9.27;2.80;;;;;;;12.66;38.94;96441.81;8343099;28;20228;-70
2022/04/08 08:04:15;;;;;;;10.30;2.90;;;;;;;12.96;39.44;96432.59;8351474;28;20652;-70
2022/04/08 08:08:18;;;;;;;9.70;2.53;;;;;;;12.94;39.29;96439.69;8349942;28;20561;-70
2022/04/08 08:12:23;;;;;;;9.77;2.40;;;;;;;12.95;39.37;96436.16;8350857;28;20232;-70
2022/04/08 08:16:26;;;;;;;6.70;2.27;;;;;;;12.89;39.32;96438.28;8351217;28;20228;-70
2022/04/08 08:20:29;;;;;;;11.30;2.63;;;;;;;12.70;38.66;96431.06;8351213;28;20557;-70
2022/04/08 08:24:32;;;;;;;8.23;2.63;;;;;;;12.68;38.84;96439.94;8350183;28;20238;-70
2022/04/08 08:28:37;;;;;;;10.17;2.90;;;;;;;12.66;38.53;96440.06;8350606;28;20315;-72
2022/04/08 08:32:40;;;;;;;9.70;3.07;;;;;;;12.65;39.38;96433.19;8350644;28;20236;-71
2022/04/08 08:36:44;;;;;;;8.47;2.80;;;;;;;12.74;38.58;96433.41;8349863;28;20235;-70
2022/04/08 08:40:48;;;;;;;9.17;2.50;;;;;;;12.72;39.01;96430.97;8349348;28;20232;-70
2022/04/08 08:44:53;;;;;;;12.27;3.03;;;;;;;12.33;38.95;96433.06;8349317;28;20232;-70
2022/04/08 08:48:56;;;;;;;9.50;3.13;;;;;;;12.78;38.84;96424.47;8349465;28;20236;-70
2022/04/08 08:52:59;;;;;;;11.60;4.50;;;;;;;12.80;38.83;96410.41;8349503;28;20254;-70
2022/04/08 08:57:02;;;;;;;12.83;5.47;;;;;;;12.94;39.27;96421.50;8349495;28;20236;-70
2022/04/08 09:01:10;;;;;;;14.13;3.00;;;;;;;13.85;58.90;96433.28;8352316;28;20333;-64
2022/04/08 09:05:15;;;;;;;13.17;3.57;;;;;;;14.55;50.97;96428.38;8347703;28;20239;-66
2022/04/08 09:09:28;;;;;;;13.37;3.40;;;;;;;15.20;46.62;96421.88;8348257;28;20243;-58
2022/04/08 09:13:32;;;;;;;19.80;3.00;;;;;;;15.75;43.59;96424.03;8348292;28;20515;-58
2022/04/08 09:17:36;;;;;;;15.57;3.43;;;;;;;15.79;40.27;96411.53;8348626;28;20255;-58
2022/04/08 09:21:39;;;;;;;18.60;2.87;;;;;;;15.93;40.65;96418.94;8348280;28;20228;-60
2022/04/08 09:25:42;;;;;;;15.83;3.23;;;;;;;14.98;36.36;96403.84;8348356;28;20649;-59
2022/04/08 09:29:46;;;;;;;15.27;3.07;;;;;;;14.43;37.30;96399.81;8348581;28;20239;-59
2022/04/08 09:34:16;;;;;;;9.13;2.80;;;;;;;14.30;37.46;96393.16;8348513;28;20420;-60
2022/04/08 09:38:20;;;;;;;9.47;2.73;;;;;;;13.91;37.61;96400.75;8341184;28;20232;-59
2022/04/08 09:42:23;;;;;;;9.83;3.00;;;;;;;13.89;37.83;96393.06;8348279;28;20561;-59
2022/04/08 09:46:26;;;;;;;10.90;3.20;;;;;;;13.36;37.14;96380.06;8348415;28;20246;-59
2022/04/08 09:50:31;;;;;;;9.00;2.67;;;;;;;13.72;37.62;96376.22;8347913;28;20262;-60
2022/04/08 09:54:37;;;;;;;9.00;1.97;;;;;;;13.40;35.91;96358.06;8347799;28;20240;-59
2022/04/08 09:58:42;;;;;;;7.03;2.53;;;;;;;13.44;38.12;96354.25;8347847;28;20232;-60
2022/04/08 10:02:47;;;;;;;9.97;2.53;;;;;;;12.60;41.96;96354.00;8347716;28;20285;-59
2022/04/08 10:06:51;;;;;;;9.33;3.17;;;;;;;13.09;41.42;96347.50;8347639;28;20231;-59
2022/04/08 10:11:03;;;;;;;13.17;3.07;;;;;;;12.77;42.74;96353.50;8347500;28;20396;-59
2022/04/08 10:15:10;;;;;;;9.63;2.90;;;;;;;12.69;45.29;96355.88;8347324;28;20232;-59
2022/04/08 10:19:14;;;;;;;7.17;2.40;;;;;;;12.33;45.27;96345.63;8346928;28;20239;-59
2022/04/08 10:23:21;;;;;;;7.33;2.77;;;;;;;12.33;48.24;96344.81;8346963;28;20423;-59
2022/04/08 10:27:32;;;;;;;6.27;2.13;;;;;;;12.29;49.42;96356.38;8346940;28;20240;-59
2022/04/08 10:31:36;;;;;;;8.80;2.23;;;;;;;12.06;50.32;96339.97;8346016;28;20523;-59
2022/04/08 10:35:39;;;;;;;8.07;2.40;;;;;;;11.82;51.13;96324.44;8346887;28;20232;-58
2022/04/08 10:39:56;;;;;;;6.80;2.17;;;;;;;12.13;51.00;96316.03;8346924;28;20224;-58
2022/04/08 10:43:59;;;;;;;5.33;1.97;;;;;;;11.97;49.64;96307.75;8346725;28;20421;-59
2022/04/08 10:48:03;;;;;;;7.17;2.67;;;;;;;12.03;50.37;96290.91;8346863;28;20477;-59
2022/04/08 10:52:15;;;;;;;8.20;2.60;;;;;;;11.90;50.52;96271.09;8347191;28;20232;-59
2022/04/08 10:56:20;;;;;;;5.43;2.33;;;;;;;12.01;50.28;96272.03;8340678;28;20587;-60
2022/04/08 11:00:23;;;;;;;8.23;3.60;;;;;;;12.07;50.75;96263.75;8346753;28;20539;-59
2022/04/08 11:04:28;;;;;;;4.83;1.70;;;;;;;11.96;50.21;96256.84;8346805;28;20228;-60
2022/04/08 11:08:33;;;;;;;3.83;1.50;;;;;;;12.24;51.23;96257.28;8346643;28;20238;-59
2022/04/08 11:12:45;;;;;;;5.90;1.90;;;;;;;11.57;52.24;96229.56;8346159;28;20228;-59
2022/04/08 11:16:49;;;;;;;5.30;2.33;;;;;;;12.07;51.54;96227.44;8346281;28;20232;-59
2022/04/08 11:20:53;;;;;;;7.60;4.43;;;;;;;12.09;51.71;96212.59;8346104;28;20285;-61
2022/04/08 11:24:57;;;;;;;3.83;1.60;;;;;;;11.82;51.45;96205.16;8345856;28;20224;-60
2022/04/08 11:29:11;;;;;;;3.40;1.43;;;;;;;12.06;51.20;96198.09;8345248;28;20248;-60
2022/04/08 11:33:15;;;;;;;4.00;1.50;;;;;;;11.92;49.71;96195.75;8342170;28;20227;-60
2022/04/08 11:37:26;;;;;;;2.93;1.30;;;;;;;11.99;50.01;96194.31;8344971;28;20234;-59
2022/04/08 11:41:29;;;;;;;4.00;1.57;;;;;;;12.07;50.50;96183.34;8346763;28;20232;-61
2022/04/08 11:45:33;;;;;;;3.33;1.27;;;;;;;11.94;49.90;96178.31;8351162;28;20415;-59
2022/04/08 11:49:36;;;;;;;5.40;1.70;;;;;;;11.89;51.99;96183.84;8350695;28;20434;-59
2022/04/08 11:53:43;;;;;;;3.33;1.40;;;;;;;11.76;50.97;96180.50;8343785;28;20240;-60
2022/04/08 11:57:46;;;;;;;2.80;1.30;;;;;;;11.68;51.64;96182.88;8350381;28;20235;-59
2022/04/08 12:01:50;;;;;;;1.77;1.10;;;;;;;11.54;52.15;96174.41;8347890;28;20240;-59
2022/04/08 12:05:56;;;;;;;3.80;1.17;;;;;;;11.62;52.92;96170.41;8348396;28;20239;-60
2022/04/08 12:10:12;;;;;;;2.33;1.10;;;;;;;11.69;52.57;96161.19;8350693;28;20268;-59
2022/04/08 12:14:16;;;;;;;2.47;1.40;;;;;;;11.54;53.05;96155.44;8350593;28;20273;-59
2022/04/08 12:18:24;;;;;;;1.97;1.30;;;;;;;11.74;52.02;96149.50;8350988;28;20546;-59
2022/04/08 12:22:34;;;;;;;1.50;1.10;;;;;;;11.55;52.99;96150.09;8350925;28;20259;-60
2022/04/08 12:26:38;;;;;;;2.80;1.40;;;;;;;11.33;54.03;96134.59;8350247;28;20236;-60
2022/04/08 12:30:41;;;;;;;1.93;0.97;;;;;;;11.44;52.67;96134.59;8344874;28;20223;-59
2022/04/08 12:34:54;;;;;;;2.13;1.20;;;;;;;11.35;54.76;96123.16;8360750;28;20236;-59
2022/04/08 12:38:57;;;;;;;1.93;1.00;;;;;;;10.66;55.09;96109.38;8350486;28;20586;-59
2022/04/08 12:43:01;;;;;;;1.77;1.00;;;;;;;10.83;54.26;96108.94;8350187;28;20232;-59
2022/04/08 12:47:05;;;;;;;3.60;1.50;;;;;;;10.87;53.77;96096.59;8350124;28;20240;-59
2022/04/08 12:51:09;;;;;;;3.07;0.80;;;;;;;11.22;53.05;96098.31;8349849;28;20252;-59
2022/04/08 12:55:12;;;;;;;3.30;1.23;;;;;;;11.22;53.23;96093.94;8348438;28;20232;-59
2022/04/08 12:59:15;;;;;;;4.17;1.70;;;;;;;11.07;53.25;96090.75;8349619;28;20231;-60
2022/04/08 13:03:18;;;;;;;3.73;1.90;;;;;;;11.20;52.33;96082.88;8348758;28;20224;-59
2022/04/08 13:07:23;;;;;;;3.00;1.60;;;;;;;11.26;53.00;96069.44;8348308;28;20240;-59
2022/04/08 13:11:26;;;;;;;2.53;1.13;;;;;;;11.24;52.20;96076.50;8346084;28;20224;-60
2022/04/08 13:15:29;;;;;;;2.67;1.03;;;;;;;11.23;51.33;96053.28;8349175;28;20271;-59
2022/04/08 13:19:32;;;;;;;2.57;1.20;;;;;;;11.28;51.52;96061.53;8348984;28;20234;-59
2022/04/08 13:23:37;;;;;;;3.70;1.47;;;;;;;11.00;52.88;96037.75;8348784;28;20254;-59
2022/04/08 13:27:42;;;;;;;2.03;1.10;;;;;;;11.13;52.10;96024.69;8348351;28;20243;-60
2022/04/08 13:31:45;;;;;;;1.80;1.20;;;;;;;11.28;51.74;96012.31;8348464;28;20416;-59
2022/04/08 13:35:52;;;;;;;4.43;1.40;;;;;;;11.22;52.58;96000.66;8348285;28;20228;-59
2022/04/08 13:39:58;;;;;;;2.93;1.23;;;;;;;11.23;52.33;95999.72;8356841;28;20329;-60
2022/04/08 13:44:01;;;;;;;1.83;1.20;;;;;;;11.09;52.57;95990.41;8381109;28;20235;-59
2022/04/08 13:48:05;;;;;;;4.10;3.23;;;;;;;11.12;51.68;95973.84;8380941;28;20502;-59
2022/04/08 13:52:08;;;;;;;1.00;0.80;;;;;;;11.03;52.24;95962.41;8348391;28;20296;-61
2022/04/08 13:56:12;;;;;;;1.23;0.83;;;;;;;11.16;51.94;95959.69;8346613;28;20224;-60
2022/04/08 14:00:16;;;;;;;2.43;1.13;;;;;;;11.01;52.81;95953.94;8346612;28;20407;-59
2022/04/08 14:04:19;;;;;;;2.13;1.30;;;;;;;10.93;52.62;95954.53;8344638;28;20224;-59
2022/04/08 14:08:22;;;;;;;1.20;0.73;;;;;;;10.39;52.67;95941.47;8347217;28;20558;-59
2022/04/08 14:12:26;;;;;;;2.03;1.03;;;;;;;10.85;52.69;95962.09;8347262;28;20240;-76
2022/04/08 14:16:30;;;;;;;2.03;0.80;;;;;;;10.80;51.88;95942.69;8347336;28;20234;-76
2022/04/08 14:20:33;;;;;;;1.07;0.97;;;;;;;10.61;54.17;95951.84;8347179;28;20309;-77
2022/04/08 14:24:37;;;;;;;1.63;1.00;;;;;;;10.76;53.27;95942.09;8346666;28;20224;-77
2022/04/08 14:28:41;;;;;;;1.43;0.90;;;;;;;10.81;53.44;95939.94;8347287;28;20264;-76
2022/04/08 14:32:45;;;;;;;1.90;0.80;;;;;;;10.74;52.38;95934.44;8347233;28;20598;-76
2022/04/08 14:36:48;;;;;;;1.67;0.93;;;;;;;10.66;53.77;95923.00;8347047;28;20291;-76
2022/04/08 14:40:51;;;;;;;1.00;0.80;;;;;;;10.70;53.71;95922.66;8347105;28;20232;-77
2022/04/08 14:44:55;;;;;;;1.87;1.00;;;;;;;10.77;54.32;95925.59;8347241;28;20543;-76
2022/04/08 14:48:58;;;;;;;1.27;0.80;;;;;;;10.71;54.08;95924.31;8346780;28;20232;-77
2022/04/08 14:53:01;;;;;;;1.30;0.73;;;;;;;10.54;52.81;95914.44;8346520;28;20589;-77
2022/04/08 14:57:04;;;;;;;1.10;0.80;;;;;;;10.53;53.39;95917.97;8346749;28;20242;-76
2022/04/08 15:01:09;;;;;;;1.03;0.70;;;;;;;10.27;53.63;95915.56;8346460;28;20234;-76
2022/04/08 15:05:12;;;;;;;1.17;0.97;;;;;;;10.01;53.66;95904.59;8346072;28;20232;-78
2022/04/08 15:09:15;;;;;;;2.20;0.93;;;;;;;9.61;55.55;95886.88;8346262;28;20561;-77
2022/04/08 15:13:17;;;;;;;2.50;1.33;;;;;;;9.23;56.38;95885.31;8346396;28;20565;-77
2022/04/08 15:17:22;;;;;;;1.20;1.00;;;;;;;9.55;55.30;95889.91;8349318;28;20235;-77
2022/04/08 15:21:25;;;;;;;0.93;0.50;;;;;;;9.07;56.58;95870.09;8352892;28;20236;-77
2022/04/08 15:25:28;;;;;;;1.47;0.97;;;;;;;9.32;56.41;95865.75;8352350;28;20228;-76
2022/04/08 15:29:31;;;;;;;1.30;0.70;;;;;;;9.20;55.55;95860.53;8352269;28;20236;-77
2022/04/08 15:33:35;;;;;;;3.30;1.60;;;;;;;9.41;55.75;95856.53;8352351;28;20228;-77
2022/04/08 15:37:40;;;;;;;1.20;0.90;;;;;;;9.69;56.63;95866.47;8352377;28;20240;-77
2022/04/08 15:41:43;;;;;;;3.43;2.70;;;;;;;9.58;55.84;95863.84;8352353;28;20224;-77
2022/04/08 15:45:46;;;;;;;1.43;1.23;;;;;;;9.86;56.36;95874.72;8351979;28;20238;-78
2022/04/08 15:49:51;;;;;;;1.33;1.13;;;;;;;9.77;56.15;95871.06;8351903;28;20414;-78
2022/04/08 15:53:54;;;;;;;1.40;0.80;;;;;;;9.76;55.92;95872.81;8351971;28;20255;-75
2022/04/08 15:57:57;;;;;;;1.40;1.30;;;;;;;9.78;55.54;95865.75;8351783;28;20228;-77
2022/04/08 16:02:04;;;;;;;4.03;3.63;;;;;;;9.70;55.55;95846.59;8351769;28;20511;-78
2022/04/08 16:06:08;;;;;;;1.90;1.30;;;;;;;9.45;55.91;95845.84;8351840;28;20232;-78
2022/04/08 16:10:11;;;;;;;1.90;1.63;;;;;;;9.53;56.36;95842.69;8351123;28;20247;-78
2022/04/08 16:14:14;;;;;;;3.13;2.63;;;;;;;9.49;57.23;95834.34;8351445;28;20427;-78
2022/04/08 16:18:17;;;;;;;3.87;3.43;;;;;;;9.46;56.46;95846.66;8351176;28;20247;-78
2022/04/08 16:22:22;;;;;;;2.93;2.70;;;;;;;9.44;56.13;95844.16;8351041;28;20240;-78
2022/04/08 16:26:25;;;;;;;2.10;1.30;;;;;;;9.30;56.84;95854.72;8350800;28;20243;-78
2022/04/08 16:30:28;;;;;;;3.53;1.10;;;;;;;9.49;56.68;95865.34;8349217;28;20244;-77
2022/04/08 16:34:31;;;;;;;1.07;0.97;;;;;;;9.57;56.09;95873.34;8350370;28;20288;-78
2022/04/08 16:38:35;;;;;;;1.90;1.13;;;;;;;9.66;56.25;95871.84;8350125;28;20232;-78
2022/04/08 16:42:43;;;;;;;2.03;0.93;;;;;;;9.74;56.18;95868.69;8350129;28;20228;-78
2022/04/08 16:46:46;;;;;;;9.40;6.47;;;;;;;9.32;56.73;95874.31;8350090;28;20439;-78
2022/04/08 16:50:52;;;;;;;7.57;4.80;;;;;;;9.32;56.57;95879.47;8349789;28;20422;-78
2022/04/08 16:54:56;;;;;;;1.20;1.10;;;;;;;9.43;56.57;95877.91;8349672;28;20236;-78
2022/04/08 16:58:59;;;;;;;5.57;4.70;;;;;;;9.44;56.53;95887.28;8349868;28;20246;-77
2022/04/08 17:03:02;;;;;;;1.80;1.70;;;;;;;9.08;57.25;95884.66;8349580;28;20236;-78
2022/04/08 17:07:05;;;;;;;3.57;2.70;;;;;;;9.30;56.86;95896.03;8349413;28;20240;-78
2022/04/08 17:11:09;;;;;;;1.30;1.10;;;;;;;9.12;56.37;95899.00;8349331;28;20240;-78
2022/04/08 17:15:12;;;;;;;7.40;6.80;;;;;;;9.30;56.43;95908.94;8348929;28;20228;-79
2022/04/08 17:19:15;;;;;;;1.87;1.77;;;;;;;9.02;57.15;95895.41;8349215;28;20561;-78
2022/04/08 17:23:19;;;;;;;1.70;1.60;;;;;;;8.91;56.65;95892.75;8348852;28;20539;-78
2022/04/08 17:27:23;;;;;;;1.97;1.70;;;;;;;9.23;55.92;95879.31;8348836;28;20243;-78
2022/04/08 17:31:26;;;;;;;1.90;1.80;;;;;;;9.02;56.50;95873.94;8348695;28;20236;-78
2022/04/08 17:35:29;;;;;;;2.40;2.20;;;;;;;9.14;55.71;95886.81;8348452;28;20282;-79
2022/04/08 17:39:32;;;;;;;2.67;2.47;;;;;;;8.84;56.64;95894.16;8348228;28;20251;-78
2022/04/08 17:43:37;;;;;;;2.00;1.80;;;;;;;9.05;56.09;95876.31;8348628;28;20227;-78
2022/04/08 17:47:40;;;;;;;2.17;1.20;;;;;;;8.77;56.53;95880.84;8348345;28;20561;-77
2022/04/08 17:51:44;;;;;;;3.43;1.90;;;;;;;8.82;56.18;95875.38;8348077;28;20427;-78
2022/04/08 17:55:48;;;;;;;1.67;1.57;;;;;;;8.86;56.06;95877.63;8347662;28;20547;-78
2022/04/08 17:59:52;;;;;;;3.73;2.07;;;;;;;8.49;56.64;95853.56;8348003;28;20232;-78
2022/04/08 18:03:55;;;;;;;1.30;1.20;;;;;;;8.61;56.04;95844.97;8347578;28;20432;-78
2022/04/08 18:07:58;;;;;;;1.77;1.67;;;;;;;8.56;55.95;95839.31;8347217;28;20240;-79
2022/04/08 18:12:03;;;;;;;2.77;1.80;;;;;;;8.71;55.73;95835.66;8347317;28;20232;-78
2022/04/08 18:16:07;;;;;;;2.60;2.40;;;;;;;8.46;56.41;95858.94;8347194;28;20232;-78
2022/04/08 18:20:11;;;;;;;1.20;1.10;;;;;;;8.66;55.62;95878.19;8346720;28;20486;-78
2022/04/08 18:24:14;;;;;;;1.60;1.20;;;;;;;8.79;55.41;95897.03;8346898;28;20258;-78
2022/04/08 18:28:17;;;;;;;2.03;1.83;;;;;;;8.80;55.65;95907.25;8346913;28;20240;-78
2022/04/08 18:32:22;;;;;;;3.20;2.63;;;;;;;8.92;55.59;95917.66;8346936;28;20242;-77
2022/04/08 18:36:27;;;;;;;3.97;3.33;;;;;;;8.73;55.63;95928.44;8346805;28;20236;-76
2022/04/08 18:40:30;;;;;;;2.73;2.53;;;;;;;8.84;55.32;95925.94;8346958;28;20431;-78
2022/04/08 18:44:35;;;;;;;1.50;1.40;;;;;;;8.79;55.68;95928.00;8346848;28;20510;-77
2022/04/08 18:48:39;;;;;;;5.10;4.70;;;;;;;8.71;55.50;95928.53;8346772;28;20246;-79
2022/04/08 18:52:43;;;;;;;3.00;2.70;;;;;;;8.87;55.63;95918.00;8350165;28;20259;-79
2022/04/08 18:56:46;;;;;;;1.90;1.70;;;;;;;8.73;55.47;95910.38;8353472;28;20295;-78
2022/04/08 19:00:49;;;;;;;1.97;1.80;;;;;;;8.64;55.58;95911.81;8353487;28;20244;-78
2022/04/08 19:04:53;;;;;;;4.03;3.60;;;;;;;8.50;56.11;95910.22;8353211;28;20310;-79
2022/04/08 19:08:56;;;;;;;2.00;1.80;;;;;;;8.70;55.29;95915.75;8352905;28;20531;-77